Time;durP1;ratioP1;P1;durP2;ratioP2;P2;SDS_P1;SDS_P2;PMS_P1;PMS_P2;Temp;Humidity;BMP_temperature;BMP_pressure;BME280_temperature;BME280_humidity;BME280_pressure;Samples;Min_cycle;Max_cycle;Signal;HPM_P1;HPM_P2
2022/10/14 00:02:08;;;;;;;8.27;4.93;;;13.90;98.20;;;;;;10397942;28;20045;-59
2022/10/14 00:07:09;;;;;;;8.00;4.80;;;13.90;98.20;;;;;;10398167;28;20047;-60
2022/10/14 00:12:10;;;;;;;7.65;4.82;;;13.90;98.20;;;;;;10394191;28;20149;-59
2022/10/14 00:17:10;;;;;;;8.98;4.75;;;13.90;98.20;;;;;;10394744;28;20030;-59
2022/10/14 00:22:11;;;;;;;9.10;5.22;;;13.90;98.20;;;;;;10391899;28;20025;-60
2022/10/14 00:27:11;;;;;;;8.93;5.25;;;13.90;98.20;;;;;;10394915;28;20052;-59
2022/10/14 00:32:12;;;;;;;8.60;5.15;;;13.90;98.20;;;;;;10396254;28;20045;-59
2022/10/14 00:37:13;;;;;;;10.23;5.22;;;13.90;98.20;;;;;;10403948;28;20021;-59
2022/10/14 00:42:14;;;;;;;9.50;5.25;;;13.90;98.20;;;;;;10400652;28;20030;-59
2022/10/14 00:47:15;;;;;;;10.63;5.25;;;13.90;98.20;;;;;;10404323;28;20108;-60
2022/10/14 00:52:19;;;;;;;8.43;4.88;;;13.80;98.10;;;;;;10401898;28;20043;-59
2022/10/14 00:57:22;;;;;;;11.25;5.88;;;13.80;98.10;;;;;;10401224;28;20474;-59
2022/10/14 01:02:22;;;;;;;8.60;4.95;;;13.80;98.10;;;;;;10403619;28;20045;-69
2022/10/14 01:07:51;;;;;;;10.63;5.85;;;13.80;98.10;;;;;;10406485;28;20133;-59
2022/10/14 01:13:09;;;;;;;9.88;5.35;;;13.80;98.20;;;;;;10405859;28;20501;-59
2022/10/14 01:18:48;;;;;;;9.77;5.57;;;13.80;98.20;;;;;;10405592;28;20034;-60
2022/10/14 01:24:04;;;;;;;13.23;6.45;;;13.80;98.20;;;;;;10403844;28;20080;-59
2022/10/14 01:29:18;;;;;;;11.82;5.75;;;13.80;98.20;;;;;;10402886;28;20045;-59
2022/10/14 01:34:26;;;;;;;12.35;5.78;;;13.80;98.20;;;;;;10405450;28;20037;-60
2022/10/14 01:39:34;;;;;;;11.52;5.90;;;13.80;98.20;;;;;;10405493;28;20035;-60
2022/10/14 01:44:40;;;;;;;12.30;6.05;;;13.80;98.20;;;;;;10400877;28;20729;-62
2022/10/14 01:49:46;;;;;;;13.27;6.30;;;13.80;98.20;;;;;;10402839;28;20078;-60
2022/10/14 01:54:51;;;;;;;12.02;6.05;;;13.70;98.10;;;;;;10401815;28;20386;-61
2022/10/14 01:59:54;;;;;;;13.15;6.38;;;13.80;98.20;;;;;;10400600;28;20021;-61
2022/10/14 02:04:54;;;;;;;13.70;6.75;;;13.70;98.20;;;;;;10401177;28;20128;-60
2022/10/14 02:10:50;;;;;;;13.13;6.47;;;13.70;98.20;;;;;;10403102;28;21123;-60
2022/10/14 02:15:58;;;;;;;12.63;6.25;;;13.70;98.20;;;;;;10393143;28;20048;-60
2022/10/14 02:21:09;;;;;;;13.63;6.53;;;13.70;98.20;;;;;;10401827;28;20031;-60
2022/10/14 02:26:11;;;;;;;13.77;6.93;;;13.70;98.20;;;;;;10401214;28;20029;-60
2022/10/14 02:31:15;;;;;;;12.80;6.63;;;13.70;98.20;;;;;;10399984;28;20463;-60
2022/10/14 02:36:19;;;;;;;10.93;6.05;;;13.70;98.20;;;;;;10401046;28;20443;-60
2022/10/14 02:41:23;;;;;;;11.35;6.00;;;13.60;98.20;;;;;;10401858;28;20057;-61
2022/10/14 02:46:24;;;;;;;12.05;5.68;;;13.60;98.20;;;;;;10402641;28;21308;-66
2022/10/14 02:51:25;;;;;;;10.38;5.20;;;13.60;98.20;;;;;;10401215;28;20467;-60
2022/10/14 02:56:26;;;;;;;9.13;4.95;;;13.60;98.20;;;;;;10401712;28;20577;-60
2022/10/14 03:01:27;;;;;;;11.20;6.05;;;13.60;98.20;;;;;;10396249;28;20482;-62
2022/10/14 03:06:27;;;;;;;10.05;5.72;;;13.60;98.20;;;;;;10400721;28;20025;-60
2022/10/14 03:11:28;;;;;;;10.23;5.70;;;13.60;98.20;;;;;;10404320;28;20069;-60
2022/10/14 03:16:29;;;;;;;10.18;5.00;;;13.60;98.20;;;;;;10399627;28;20033;-63
2022/10/14 03:21:30;;;;;;;8.75;4.63;;;13.60;98.20;;;;;;10396717;28;20200;-60
2022/10/14 03:26:31;;;;;;;7.97;4.20;;;13.50;98.20;;;;;;10398680;28;20124;-61
2022/10/14 03:31:32;;;;;;;8.95;4.25;;;13.50;98.10;;;;;;10399510;28;20472;-60
2022/10/14 03:36:33;;;;;;;8.32;4.50;;;13.50;98.20;;;;;;10399346;28;20075;-62
2022/10/14 03:41:34;;;;;;;9.32;4.78;;;13.50;98.10;;;;;;10399870;28;20489;-60
2022/10/14 03:46:34;;;;;;;8.57;4.13;;;13.50;98.10;;;;;;10401752;28;20025;-60
2022/10/14 03:51:35;;;;;;;8.35;4.50;;;13.50;98.10;;;;;;10398701;28;20030;-60
2022/10/14 03:56:36;;;;;;;8.05;4.10;;;13.50;98.10;;;;;;10399742;28;20132;-61
2022/10/14 04:01:37;;;;;;;7.47;3.90;;;13.50;98.10;;;;;;10400858;28;20032;-60
2022/10/14 04:06:37;;;;;;;8.73;4.43;;;13.50;98.10;;;;;;10393887;28;20036;-60
2022/10/14 04:11:38;;;;;;;8.85;4.85;;;13.50;98.10;;;;;;10409168;28;20120;-60
2022/10/14 04:16:39;;;;;;;9.98;4.55;;;13.50;98.10;;;;;;10408385;28;20029;-60
2022/10/14 04:21:39;;;;;;;9.55;4.60;;;13.50;98.10;;;;;;10405650;28;20033;-60
2022/10/14 04:26:40;;;;;;;7.13;3.85;;;13.50;98.10;;;;;;10406963;28;20025;-60
2022/10/14 04:31:41;;;;;;;6.47;3.60;;;13.40;98.10;;;;;;10405828;28;20370;-60
2022/10/14 04:36:42;;;;;;;8.93;4.47;;;13.40;98.10;;;;;;10406405;28;20029;-61
2022/10/14 04:41:43;;;;;;;8.18;4.95;;;13.40;98.10;;;;;;10401229;28;20120;-60
2022/10/14 04:46:43;;;;;;;8.43;4.25;;;13.40;98.10;;;;;;10401689;28;20029;-60
2022/10/14 04:51:44;;;;;;;10.00;3.88;;;13.40;98.10;;;;;;10404570;28;20132;-60
2022/10/14 04:56:45;;;;;;;8.60;4.68;;;13.40;98.10;;;;;;10403533;28;20429;-60
2022/10/14 05:01:46;;;;;;;7.60;4.30;;;13.40;98.10;;;;;;10404104;28;20037;-60
2022/10/14 05:06:47;;;;;;;7.70;4.18;;;13.40;98.10;;;;;;10404354;28;20060;-61
2022/10/14 05:11:47;;;;;;;9.95;5.03;;;13.50;98.10;;;;;;10409006;28;20549;-61
2022/10/14 05:16:48;;;;;;;8.82;4.35;;;13.40;98.20;;;;;;10405872;28;20030;-65
2022/10/14 05:21:49;;;;;;;10.25;5.15;;;13.30;98.20;;;;;;10402400;28;20470;-61
2022/10/14 05:26:50;;;;;;;9.88;4.75;;;13.30;98.20;;;;;;10404975;28;20116;-61
2022/10/14 05:31:50;;;;;;;10.25;5.00;;;13.40;98.30;;;;;;10401629;28;20060;-61
2022/10/14 05:36:51;;;;;;;11.38;5.57;;;13.30;98.20;;;;;;10403783;28;20028;-60
2022/10/14 05:41:52;;;;;;;10.38;5.50;;;13.40;98.20;;;;;;10400861;28;20040;-61
2022/10/14 05:46:52;;;;;;;10.77;5.32;;;13.40;98.20;;;;;;10402592;28;20025;-61
2022/10/14 05:51:53;;;;;;;11.80;5.85;;;13.40;98.20;;;;;;10404036;28;20044;-61
2022/10/14 05:56:54;;;;;;;9.50;4.95;;;13.40;98.20;;;;;;10402703;28;20621;-62
2022/10/14 06:01:55;;;;;;;10.20;5.07;;;13.40;98.20;;;;;;10400306;28;20053;-61
2022/10/14 06:06:57;;;;;;;10.70;5.63;;;13.40;98.20;;;;;;10402465;28;20030;-61
2022/10/14 06:11:58;;;;;;;12.00;5.53;;;13.40;98.20;;;;;;10403454;28;20033;-61
2022/10/14 06:16:59;;;;;;;13.27;5.45;;;13.40;98.20;;;;;;10402334;28;20025;-65
2022/10/14 06:21:59;;;;;;;13.45;6.05;;;13.40;98.20;;;;;;10384411;28;20255;-61
2022/10/14 06:27:00;;;;;;;11.15;5.95;;;13.40;98.20;;;;;;10320250;28;20464;-60
2022/10/14 06:32:01;;;;;;;12.88;5.57;;;13.40;98.20;;;;;;10320675;28;20112;-60
2022/10/14 06:37:01;;;;;;;10.38;5.65;;;13.40;98.20;;;;;;10320343;28;20509;-60
2022/10/14 06:42:02;;;;;;;12.40;5.63;;;13.40;98.20;;;;;;10320263;28;20142;-60
2022/10/14 06:47:05;;;;;;;11.85;5.43;;;13.40;98.20;;;;;;10316649;28;20036;-60
2022/10/14 06:52:06;;;;;;;12.80;6.13;;;13.40;98.20;;;;;;10327089;28;20037;-61
2022/10/14 06:57:07;;;;;;;10.85;5.72;;;13.40;98.10;;;;;;10316605;28;20372;-61
2022/10/14 07:02:09;;;;;;;11.88;5.47;;;13.40;98.20;;;;;;10320398;28;20032;-61
2022/10/14 07:07:09;;;;;;;8.85;5.00;;;13.40;98.20;;;;;;10320111;28;20467;-69
2022/10/14 07:12:10;;;;;;;11.90;5.85;;;13.40;98.20;;;;;;10320502;28;20845;-60
2022/10/14 07:17:11;;;;;;;13.77;6.47;;;13.40;98.20;;;;;;10316819;28;20034;-60
2022/10/14 07:22:11;;;;;;;10.82;5.78;;;13.40;98.10;;;;;;10317855;28;20077;-60
2022/10/14 07:27:14;;;;;;;11.07;5.78;;;13.40;98.10;;;;;;10314014;28;20588;-61
2022/10/14 07:32:15;;;;;;;11.40;5.65;;;13.40;98.10;;;;;;10315188;28;20430;-61
2022/10/14 07:37:16;;;;;;;13.55;6.30;;;13.40;98.10;;;;;;10319888;28;20057;-63
2022/10/14 07:42:16;;;;;;;13.38;6.25;;;13.10;98.10;;;;;;10316622;28;20037;-62
2022/10/14 07:47:17;;;;;;;11.00;5.72;;;13.40;98.10;;;;;;10310327;28;20173;-60
2022/10/14 07:52:18;;;;;;;12.25;6.18;;;13.40;98.10;;;;;;10328723;28;20133;-61
2022/10/14 07:57:19;;;;;;;15.07;6.75;;;13.40;98.10;;;;;;10319325;28;20470;-61
2022/10/14 08:02:20;;;;;;;13.43;6.20;;;13.50;98.10;;;;;;10318272;28;20042;-61
2022/10/14 08:07:21;;;;;;;12.55;6.35;;;13.50;98.10;;;;;;10323806;28;20032;-61
2022/10/14 08:12:22;;;;;;;10.15;5.65;;;13.50;98.10;;;;;;10320713;28;20048;-61
2022/10/14 08:17:22;;;;;;;14.77;7.25;;;13.50;98.40;;;;;;10321661;28;20112;-61
2022/10/14 08:22:23;;;;;;;12.43;6.22;;;13.50;98.10;;;;;;10329517;28;20037;-61
2022/10/14 08:27:25;;;;;;;12.18;6.53;;;13.50;98.10;;;;;;10320617;28;20238;-61
2022/10/14 08:32:26;;;;;;;15.02;6.97;;;13.50;98.10;;;;;;10324267;28;20512;-61
2022/10/14 08:37:26;;;;;;;12.68;6.43;;;13.50;98.20;;;;;;10322426;28;20496;-61
2022/10/14 08:42:49;;;;;;;13.38;6.55;;;13.50;98.10;;;;;;10325337;28;20025;-61
2022/10/14 08:47:52;;;;;;;16.48;6.97;;;13.50;98.20;;;;;;10325136;28;20037;-61
2022/10/14 08:53:06;;;;;;;14.48;7.50;;;13.50;98.10;;;;;;10325995;28;20524;-60
2022/10/14 08:58:27;;;;;;;17.13;7.97;;;13.50;98.20;;;;;;10328348;28;20495;-61
2022/10/14 09:03:33;;;;;;;15.15;7.88;;;13.50;98.20;;;;;;10325851;28;20400;-60
2022/10/14 09:08:39;;;;;;;14.50;6.78;;;13.50;98.20;;;;;;10320860;28;20463;-61
2022/10/14 09:13:44;;;;;;;13.32;6.68;;;13.50;98.20;;;;;;10332845;28;20037;-61
2022/10/14 09:18:55;;;;;;;13.25;6.32;;;13.50;98.20;;;;;;10329656;28;20045;-61
2022/10/14 09:24:24;;;;;;;16.73;7.53;;;13.50;98.20;;;;;;10335924;28;20554;-62
2022/10/14 09:29:29;;;;;;;;;;;13.50;98.20;;;;;;10328654;28;20420;-61
2022/10/14 09:34:34;;;;;;;12.52;6.55;;;13.50;98.30;;;;;;10330605;28;19913;-66
2022/10/14 09:39:39;;;;;;;14.68;7.03;;;13.60;98.10;;;;;;10325543;28;20025;-61
2022/10/14 09:44:40;;;;;;;12.65;6.00;;;13.60;98.10;;;;;;10324809;28;20160;-60
2022/10/14 09:49:45;;;;;;;12.00;5.85;;;13.60;98.10;;;;;;10327403;28;20060;-61
2022/10/14 09:54:53;;;;;;;12.80;6.25;;;13.60;98.10;;;;;;10327490;28;20029;-60
2022/10/14 09:59:59;;;;;;;14.52;6.60;;;13.60;98.10;;;;;;10318102;28;20500;-60
2022/10/14 10:05:26;;;;;;;11.95;5.40;;;13.60;98.10;;;;;;10315570;28;20432;-60
2022/10/14 10:10:29;;;;;;;11.38;5.97;;;13.60;98.30;;;;;;10316110;28;20616;-60
2022/10/14 10:15:30;;;;;;;12.93;6.05;;;13.60;98.30;;;;;;10322081;28;20029;-60
2022/10/14 10:20:32;;;;;;;14.07;5.68;;;13.70;98.30;;;;;;10312615;28;20030;-60
2022/10/14 10:25:32;;;;;;;10.90;5.13;;;13.70;98.40;;;;;;10309180;28;20109;-60
2022/10/14 10:31:02;;;;;;;12.98;6.15;;;13.70;98.40;;;;;;10311596;28;20136;-60
2022/10/14 10:36:19;;;;;;;10.63;5.25;;;13.70;98.60;;;;;;10308131;28;20100;-60
2022/10/14 10:41:29;;;;;;;9.25;4.78;;;13.70;98.60;;;;;;10316547;28;20025;-61
2022/10/14 10:46:50;;;;;;;11.27;5.82;;;13.70;98.50;;;;;;10307367;28;20129;-60
2022/10/14 10:52:17;;;;;;;10.55;5.03;;;13.80;98.60;;;;;;10311064;28;20997;-60
2022/10/14 10:57:55;;;;;;;9.45;5.13;;;13.80;98.60;;;;;;10318205;28;20014;-60
2022/10/14 11:03:27;;;;;;;9.45;5.25;;;13.80;98.70;;;;;;10320199;28;20179;-60
2022/10/14 11:14:32;;;;;;;10.10;5.43;;;13.90;99.10;;;;;;10313893;28;20358;-63
2022/10/14 11:19:57;;;;;;;12.48;5.93;;;13.80;98.80;;;;;;10317849;28;20099;-61
2022/10/14 11:25:26;;;;;;;11.20;5.22;;;13.90;99.00;;;;;;10319949;28;20406;-64
2022/10/14 11:30:47;;;;;;;10.65;5.75;;;13.90;99.10;;;;;;10318868;28;20060;-62
2022/10/14 11:36:01;;;;;;;10.38;5.20;;;13.90;99.00;;;;;;10320623;28;20061;-60
2022/10/14 11:41:08;;;;;;;9.63;4.85;;;13.90;99.00;;;;;;10319843;28;20040;-60
2022/10/14 11:46:17;;;;;;;9.73;5.22;;;13.90;98.90;;;;;;10320141;28;20060;-60
2022/10/14 11:51:29;;;;;;;9.85;5.40;;;13.90;99.30;;;;;;10314358;28;20923;-61
2022/10/14 11:56:39;;;;;;;12.68;6.28;;;14.00;99.50;;;;;;10322039;28;20033;-60
2022/10/14 12:01:43;;;;;;;11.82;5.60;;;14.00;99.40;;;;;;10319773;28;20108;-60
2022/10/14 12:06:56;;;;;;;9.13;5.00;;;14.10;99.40;;;;;;10317821;28;20029;-60
2022/10/14 12:12:06;;;;;;;8.48;4.63;;;14.00;99.30;;;;;;10319886;28;20052;-60
2022/10/14 12:17:21;;;;;;;7.88;4.32;;;14.10;99.30;;;;;;10319260;28;20026;-60
2022/10/14 12:22:26;;;;;;;8.07;4.53;;;14.10;99.30;;;;;;10314356;28;20521;-61
2022/10/14 12:27:28;;;;;;;6.80;4.80;;;14.10;99.30;;;;;;10318560;28;20545;-60
2022/10/14 12:32:30;;;;;;;6.40;3.85;;;14.10;99.40;;;;;;10327395;28;20115;-60
2022/10/14 12:37:33;;;;;;;6.40;3.85;;;14.20;99.40;;;;;;10318693;28;20520;-60
2022/10/14 12:42:43;;;;;;;6.88;3.67;;;14.20;99.60;;;;;;10317255;28;20039;-61
2022/10/14 12:47:43;;;;;;;7.68;3.83;;;14.30;99.70;;;;;;10319848;28;20088;-61
2022/10/14 12:52:47;;;;;;;6.43;3.60;;;14.20;99.60;;;;;;10314315;28;20448;-61
2022/10/14 12:58:01;;;;;;;5.65;3.72;;;14.30;99.60;;;;;;10320910;28;21109;-61
2022/10/14 13:03:05;;;;;;;7.80;4.35;;;14.20;99.80;;;;;;10318737;28;20034;-62
2022/10/14 13:08:35;;;;;;;6.05;3.40;;;14.20;99.70;;;;;;10317162;28;20831;-65
2022/10/14 13:13:48;;;;;;;4.78;3.40;;;14.30;99.90;;;;;;10319353;28;20126;-61
2022/10/14 13:18:56;;;;;;;6.18;3.65;;;14.20;99.70;;;;;;10315682;28;20104;-63
2022/10/14 13:24:04;;;;;;;5.05;3.50;;;14.30;99.80;;;;;;10318682;28;20068;-62
2022/10/14 13:29:20;;;;;;;6.40;4.10;;;14.30;99.90;;;;;;10316102;28;20552;-61
2022/10/14 13:34:33;;;;;;;5.75;3.97;;;14.30;99.90;;;;;;10322082;28;20432;-61
2022/10/14 13:39:34;;;;;;;5.68;3.63;;;14.30;99.80;;;;;;10307578;28;20354;-62
2022/10/14 13:44:35;;;;;;;6.55;3.90;;;14.30;99.80;;;;;;10318716;28;20060;-62
2022/10/14 13:49:39;;;;;;;5.82;3.45;;;14.30;99.90;;;;;;10316144;28;20065;-61
2022/10/14 13:54:40;;;;;;;5.75;3.20;;;14.30;99.90;;;;;;10311508;28;20040;-61
2022/10/14 13:59:44;;;;;;;6.45;4.20;;;14.30;99.90;;;;;;10316017;28;20498;-65
2022/10/14 14:04:51;;;;;;;6.10;3.47;;;14.30;99.90;;;;;;10313604;28;20403;-62
2022/10/14 14:10:00;;;;;;;5.50;3.63;;;14.40;99.90;;;;;;10314541;28;20604;-61
2022/10/14 14:15:02;;;;;;;4.43;3.40;;;14.40;99.90;;;;;;10315628;28;20061;-61
2022/10/14 14:20:09;;;;;;;4.85;3.42;;;14.40;99.90;;;;;;10318042;28;20268;-62
2022/10/14 14:25:21;;;;;;;5.38;3.38;;;14.40;99.90;;;;;;10310022;28;20026;-64
2022/10/14 14:30:26;;;;;;;5.25;3.50;;;14.30;99.90;;;;;;10316104;28;20168;-64
2022/10/14 14:35:27;;;;;;;4.22;3.20;;;14.30;99.90;;;;;;10317582;28;20132;-62
2022/10/14 14:40:29;;;;;;;4.80;3.30;;;14.40;99.90;;;;;;10318173;28;20844;-62
2022/10/14 14:45:36;;;;;;;4.53;3.35;;;14.30;99.90;;;;;;10305015;28;20068;-61
2022/10/14 14:50:41;;;;;;;4.80;3.22;;;14.40;99.90;;;;;;10310645;28;20949;-61
2022/10/14 14:56:03;;;;;;;3.92;3.15;;;14.40;99.90;;;;;;10311677;28;20578;-61
2022/10/14 15:01:06;;;;;;;5.03;3.08;;;14.40;99.90;;;;;;10308869;28;20028;-61
2022/10/14 15:06:14;;;;;;;5.15;3.70;;;14.40;99.90;;;;;;10313420;28;20033;-62
2022/10/14 15:11:15;;;;;;;3.42;2.45;;;14.40;99.90;;;;;;10314086;28;20173;-61
2022/10/14 15:16:32;;;;;;;6.03;2.80;;;14.40;99.90;;;;;;10313114;28;20033;-61
2022/10/14 15:21:33;;;;;;;3.92;2.88;;;14.40;99.90;;;;;;10313773;28;20480;-62
2022/10/14 15:26:35;;;;;;;3.45;2.70;;;14.50;99.90;;;;;;10316410;28;20040;-61
2022/10/14 15:31:37;;;;;;;3.38;2.45;;;14.50;99.90;;;;;;10308561;28;20768;-61
2022/10/14 15:36:38;;;;;;;3.35;2.28;;;14.40;99.90;;;;;;10309940;28;20021;-62
2022/10/14 15:41:53;;;;;;;2.72;2.05;;;14.40;99.90;;;;;;10316426;28;20580;-69
2022/10/14 15:47:23;;;;;;;2.63;2.08;;;14.40;99.90;;;;;;10319765;28;20032;-61
2022/10/14 15:52:31;;;;;;;3.28;2.30;;;14.60;99.90;;;;;;10328114;28;20401;-62
2022/10/14 15:57:32;;;;;;;2.58;2.00;;;14.40;99.90;;;;;;10320522;28;20026;-61
2022/10/14 16:02:34;;;;;;;2.15;1.92;;;14.40;99.90;;;;;;10291460;28;20029;-62
2022/10/14 16:07:35;;;;;;;3.47;2.00;;;14.40;99.90;;;;;;10308310;28;20446;-64
2022/10/14 16:12:36;;;;;;;2.10;1.80;;;14.40;99.90;;;;;;10310233;28;20204;-62
2022/10/14 16:17:36;;;;;;;3.13;2.08;;;14.40;99.90;;;;;;10312731;28;20021;-61
2022/10/14 16:22:37;;;;;;;2.50;1.80;;;14.40;99.90;;;;;;10309041;28;20026;-60
2022/10/14 16:27:38;;;;;;;1.92;1.70;;;14.40;99.90;;;;;;10313999;28;20740;-63
2022/10/14 16:32:39;;;;;;;3.00;1.83;;;14.40;99.90;;;;;;10309983;28;20053;-62
2022/10/14 16:37:39;;;;;;;3.92;1.83;;;14.40;99.90;;;;;;10311711;28;20152;-61
2022/10/14 16:42:40;;;;;;;2.78;1.73;;;14.50;99.90;;;;;;10312781;28;20036;-61
2022/10/14 16:47:41;;;;;;;2.10;1.80;;;14.50;99.90;;;;;;10311711;28;20037;-61
2022/10/14 16:58:07;;;;;;;2.38;1.80;;;14.60;99.90;;;;;;10301408;28;20030;-61
2022/10/14 17:03:14;;;;;;;2.30;1.80;;;14.40;99.90;;;;;;10296135;28;20420;-68
2022/10/14 17:08:46;;;;;;;2.58;1.70;;;14.40;99.90;;;;;;10339837;23;20565;-66
2022/10/14 17:13:51;;;;;;;2.00;1.60;;;14.40;99.90;;;;;;10398664;28;20390;-63
2022/10/14 17:19:14;;;;;;;2.00;1.60;;;14.40;99.90;;;;;;10421092;28;20072;-66
2022/10/14 17:24:25;;;;;;;2.08;1.45;;;14.40;99.90;;;;;;10404428;28;20105;-67
2022/10/14 17:29:46;;;;;;;2.05;1.60;;;14.40;99.90;;;;;;10399799;28;20651;-67
2022/10/14 17:34:47;;;;;;;1.63;1.45;;;14.40;99.90;;;;;;10400232;28;20151;-65
2022/10/14 17:39:48;;;;;;;2.90;1.70;;;14.40;99.90;;;;;;10416744;28;20103;-66
2022/10/14 17:44:49;;;;;;;2.58;1.90;;;14.40;99.90;;;;;;10401048;28;20013;-65
2022/10/14 17:49:52;;;;;;;2.05;1.50;;;14.40;99.90;;;;;;10425290;28;20035;-64
2022/10/14 17:54:53;;;;;;;2.55;1.67;;;14.40;99.90;;;;;;10419950;28;20079;-64
2022/10/14 17:59:54;;;;;;;2.75;1.83;;;14.40;99.90;;;;;;10421269;28;20037;-65
2022/10/14 18:04:55;;;;;;;2.40;1.75;;;14.40;99.90;;;;;;10419552;28;20018;-64
2022/10/14 18:09:56;;;;;;;2.13;1.70;;;14.30;99.90;;;;;;10419531;28;20077;-64
2022/10/14 18:14:57;;;;;;;2.55;1.90;;;14.30;99.90;;;;;;10416687;28;20179;-64
2022/10/14 18:20:02;;;;;;;2.58;1.80;;;14.30;99.90;;;;;;10416937;28;20021;-64
2022/10/14 18:25:05;;;;;;;2.97;1.85;;;14.30;99.90;;;;;;10419444;28;20460;-64
2022/10/14 18:30:07;;;;;;;2.80;1.75;;;14.30;99.90;;;;;;10417109;28;20052;-65
2022/10/14 18:35:09;;;;;;;2.83;2.08;;;14.30;99.90;;;;;;10419135;28;20018;-64
2022/10/14 18:40:10;;;;;;;2.92;2.05;;;14.30;99.90;;;;;;10415685;28;20035;-65
2022/10/14 18:45:11;;;;;;;2.70;1.88;;;14.30;99.90;;;;;;10414837;28;20553;-65
2022/10/14 18:50:12;;;;;;;2.67;1.95;;;14.30;99.90;;;;;;10418899;28;20033;-64
2022/10/14 18:55:13;;;;;;;4.05;2.50;;;13.90;99.90;;;;;;10418193;28;20021;-64
2022/10/14 19:00:15;;;;;;;4.03;2.30;;;14.30;99.90;;;;;;10419614;28;20501;-66
2022/10/14 19:05:16;;;;;;;4.28;2.55;;;14.30;99.90;;;;;;10417041;28;21021;-64
2022/10/14 19:10:17;;;;;;;3.55;2.50;;;14.30;99.90;;;;;;10413245;28;20044;-64
2022/10/14 19:15:18;;;;;;;3.88;2.67;;;14.30;99.90;;;;;;10414779;28;20024;-64
2022/10/14 19:20:19;;;;;;;3.90;2.42;;;14.20;99.90;;;;;;10416623;28;20033;-64
2022/10/14 19:25:20;;;;;;;4.95;2.67;;;14.30;99.90;;;;;;10415485;28;20022;-63
2022/10/14 19:30:21;;;;;;;4.85;2.80;;;14.20;99.90;;;;;;10419810;28;20045;-64
2022/10/14 19:35:22;;;;;;;3.78;2.67;;;14.30;99.90;;;;;;10411075;28;20021;-64
2022/10/14 19:40:23;;;;;;;4.25;2.72;;;14.30;99.90;;;;;;10411164;28;20472;-64
2022/10/14 19:45:24;;;;;;;4.20;2.80;;;14.20;99.90;;;;;;10415766;28;20393;-64
2022/10/14 19:50:24;;;;;;;4.55;2.92;;;14.20;99.90;;;;;;10413134;28;20036;-64
2022/10/14 19:55:25;;;;;;;5.57;3.20;;;14.20;99.90;;;;;;10412935;28;20025;-64
2022/10/14 20:00:26;;;;;;;5.68;3.15;;;14.20;99.90;;;;;;10413906;28;20060;-64
2022/10/14 20:05:27;;;;;;;4.53;3.13;;;14.20;99.90;;;;;;10414678;28;20094;-63
2022/10/14 20:10:28;;;;;;;5.50;3.65;;;14.20;99.90;;;;;;10384516;28;20099;-66
2022/10/14 20:15:29;;;;;;;5.72;3.50;;;15.00;99.90;;;;;;10412503;28;20013;-64
2022/10/14 20:20:30;;;;;;;4.80;3.20;;;14.20;99.90;;;;;;10415140;28;20104;-64
2022/10/14 20:25:34;;;;;;;5.50;3.45;;;14.00;99.90;;;;;;10412761;28;20386;-64
2022/10/14 20:30:38;;;;;;;5.97;3.50;;;14.10;99.90;;;;;;10414102;28;20033;-65
2022/10/14 20:35:39;;;;;;;5.80;3.75;;;14.10;99.90;;;;;;10415600;28;20508;-64
2022/10/14 20:40:48;;;;;;;5.40;3.28;;;14.20;99.90;;;;;;10412615;28;20139;-64
2022/10/14 20:45:49;;;;;;;7.20;4.15;;;14.10;99.90;;;;;;10395090;28;20065;-67
2022/10/14 20:50:50;;;;;;;5.90;4.00;;;14.10;99.90;;;;;;10421439;28;20091;-64
2022/10/14 20:55:51;;;;;;;7.13;3.55;;;14.10;99.90;;;;;;10423035;28;20020;-64
2022/10/14 21:00:52;;;;;;;7.18;4.15;;;14.10;99.90;;;;;;10403744;28;20092;-67
2022/10/14 21:05:53;;;;;;;6.53;4.20;;;14.10;99.90;;;;;;10421207;28;20022;-64
2022/10/14 21:11:02;;;;;;;7.00;4.20;;;14.10;99.90;;;;;;10418905;28;20196;-64
2022/10/14 21:16:19;;;;;;;8.88;4.53;;;14.10;99.90;;;;;;10416987;28;20105;-66
2022/10/14 21:21:21;;;;;;;7.90;4.30;;;14.10;99.90;;;;;;10417630;28;20025;-66
2022/10/14 21:26:24;;;;;;;7.25;4.55;;;14.10;99.90;;;;;;10417481;28;20378;-64
2022/10/14 21:31:25;;;;;;;6.55;4.13;;;14.10;99.90;;;;;;10420090;28;20041;-67
2022/10/14 21:36:25;;;;;;;6.40;4.50;;;14.10;99.90;;;;;;10426572;28;20284;-64
2022/10/14 21:41:27;;;;;;;7.53;4.63;;;14.10;99.90;;;;;;10416298;28;20033;-64
2022/10/14 21:46:28;;;;;;;9.13;5.00;;;14.10;99.90;;;;;;10421665;28;20417;-65
2022/10/14 21:51:30;;;;;;;10.77;5.03;;;14.10;99.90;;;;;;10426772;28;20036;-63
2022/10/14 21:56:31;;;;;;;7.93;4.72;;;14.10;99.90;;;;;;10424175;28;20029;-64
2022/10/14 22:01:32;;;;;;;10.77;4.97;;;14.00;99.90;;;;;;10419543;28;20029;-64
2022/10/14 22:06:34;;;;;;;7.28;4.93;;;14.00;99.90;;;;;;10421213;28;21301;-63
2022/10/14 22:11:38;;;;;;;8.23;4.60;;;14.00;99.90;;;;;;10413828;28;20209;-64
2022/10/14 22:16:39;;;;;;;8.65;5.50;;;14.30;99.90;;;;;;10419672;28;20474;-64
2022/10/14 22:21:41;;;;;;;9.20;4.90;;;14.00;99.90;;;;;;10417865;28;20024;-64
2022/10/14 22:26:42;;;;;;;8.20;5.00;;;14.80;99.90;;;;;;10415107;28;20385;-64
2022/10/14 22:31:44;;;;;;;8.20;5.40;;;14.00;99.90;;;;;;10416961;28;20033;-64
2022/10/14 22:36:44;;;;;;;9.85;4.97;;;14.00;99.90;;;;;;10416609;28;20385;-64
2022/10/14 22:41:45;;;;;;;8.45;5.25;;;14.00;99.90;;;;;;10415431;28;20039;-64
2022/10/14 22:46:46;;;;;;;10.25;5.68;;;14.00;99.90;;;;;;10420143;28;20017;-64
2022/10/14 22:51:47;;;;;;;10.63;5.78;;;14.00;99.90;;;;;;10415893;28;20051;-64
2022/10/14 22:56:47;;;;;;;8.45;4.85;;;14.00;99.90;;;;;;10411677;28;20037;-63
2022/10/14 23:01:48;;;;;;;11.10;5.55;;;14.00;99.90;;;;;;10418413;28;20343;-64
2022/10/14 23:06:50;;;;;;;11.68;6.40;;;14.00;99.90;;;;;;10414388;28;20033;-64
2022/10/14 23:11:51;;;;;;;10.95;6.13;;;14.00;99.90;;;;;;10402086;28;20036;-64
2022/10/14 23:16:51;;;;;;;11.13;6.00;;;13.90;99.90;;;;;;10413872;28;20390;-64
2022/10/14 23:21:52;;;;;;;11.80;6.57;;;13.90;99.90;;;;;;10416024;28;20025;-65
2022/10/14 23:26:53;;;;;;;9.60;5.68;;;13.90;99.90;;;;;;10414114;28;20033;-64
2022/10/14 23:31:53;;;;;;;10.98;6.60;;;13.90;99.90;;;;;;10412092;28;20404;-64
2022/10/14 23:36:54;;;;;;;12.93;7.18;;;13.90;99.90;;;;;;10412090;28;20030;-64
2022/10/14 23:41:55;;;;;;;9.57;6.05;;;13.90;99.90;;;;;;10411392;28;20022;-64
2022/10/14 23:46:55;;;;;;;13.07;6.32;;;13.90;99.90;;;;;;10415122;28;20044;-65
2022/10/14 23:51:56;;;;;;;13.88;7.15;;;13.90;99.90;;;;;;10413647;28;20051;-64
2022/10/14 23:56:57;;;;;;;12.30;6.85;;;13.90;99.90;;;;;;10413029;28;20084;-63
